createdAt,value
2018-05-06T00:01:06.683Z,3.50
2018-05-06T00:03:41.807Z,4.10
2018-05-06T00:06:17.053Z,3.80
2018-05-06T00:08:52.289Z,3.53
2018-05-06T00:11:27.510Z,3.37
2018-05-06T00:14:02.790Z,2.80
2018-05-06T00:16:38.670Z,3.67
2018-05-06T00:19:13.789Z,3.63
2018-05-06T00:21:49.836Z,3.20
2018-05-06T00:24:25.825Z,3.40
2018-05-06T00:27:00.913Z,4.07
2018-05-06T00:29:36.219Z,2.70
2018-05-06T00:32:11.483Z,3.50
2018-05-06T00:34:46.590Z,5.97
2018-05-06T00:37:21.867Z,4.10
2018-05-06T00:39:57.868Z,3.77
2018-05-06T00:42:32.973Z,4.47
2018-05-06T00:45:08.974Z,3.40
2018-05-06T00:47:44.285Z,2.77
2018-05-06T00:50:20.306Z,3.50
2018-05-06T00:52:55.373Z,4.77
2018-05-06T00:55:31.278Z,3.63
2018-05-06T00:58:06.410Z,3.53
2018-05-06T01:00:41.699Z,3.40
2018-05-06T01:03:16.890Z,3.73
2018-05-06T01:05:52.090Z,3.60
2018-05-06T01:08:27.403Z,3.53
2018-05-06T01:11:03.284Z,3.30
2018-05-06T01:13:38.473Z,3.20
2018-05-06T01:16:13.670Z,3.57
2018-05-06T01:18:48.897Z,3.10
2018-05-06T01:21:24.159Z,4.10
2018-05-06T01:23:59.516Z,4.47
2018-05-06T01:26:34.722Z,3.67
2018-05-06T01:29:10.043Z,3.03
2018-05-06T01:31:45.952Z,3.73
2018-05-06T01:34:21.179Z,3.80
2018-05-06T01:36:56.447Z,3.30
2018-05-06T01:39:31.689Z,3.27
2018-05-06T01:42:06.993Z,3.73
2018-05-06T01:44:42.256Z,3.60
2018-05-06T01:47:17.439Z,3.17
2018-05-06T01:49:52.700Z,3.83
2018-05-06T01:52:28.016Z,3.93
2018-05-06T01:55:03.246Z,3.70
2018-05-06T01:57:38.497Z,3.20
2018-05-06T02:00:13.766Z,3.73
2018-05-06T02:02:49.015Z,3.63
2018-05-06T02:05:24.228Z,3.30
2018-05-06T02:08:00.180Z,3.50
2018-05-06T02:10:36.067Z,3.67
2018-05-06T02:13:11.198Z,4.20
2018-05-06T02:15:46.483Z,3.47
2018-05-06T02:18:21.569Z,3.40
2018-05-06T02:20:57.490Z,3.57
2018-05-06T02:23:32.537Z,3.27
2018-05-06T02:26:08.509Z,3.43
2018-05-06T02:28:44.477Z,3.10
2018-05-06T02:31:21.020Z,3.43
2018-05-06T02:33:56.146Z,3.20
2018-05-06T02:36:32.040Z,3.63
2018-05-06T02:39:07.382Z,4.03
2018-05-06T02:41:42.697Z,4.00
2018-05-06T02:44:18.017Z,3.80
2018-05-06T02:46:53.285Z,3.70
2018-05-06T02:49:28.469Z,4.00
2018-05-06T02:52:03.535Z,3.47
2018-05-06T02:54:38.778Z,3.77
2018-05-06T02:57:14.054Z,3.53
2018-05-06T02:59:49.309Z,3.70
2018-05-06T03:02:25.246Z,4.43
2018-05-06T03:05:00.483Z,3.70
2018-05-06T03:07:35.803Z,2.87
2018-05-06T03:10:10.941Z,3.50
2018-05-06T03:12:46.164Z,3.30
2018-05-06T03:15:21.456Z,4.30
2018-05-06T03:17:56.550Z,3.70
2018-05-06T03:20:31.840Z,3.80
2018-05-06T03:23:07.833Z,3.63
2018-05-06T03:25:43.793Z,5.20
2018-05-06T03:28:19.054Z,4.10
2018-05-06T03:30:54.379Z,4.33
2018-05-06T03:33:30.268Z,4.20
2018-05-06T03:36:05.458Z,3.23
2018-05-06T03:38:40.584Z,4.10
2018-05-06T03:41:16.617Z,3.93
2018-05-06T03:43:52.562Z,3.60
2018-05-06T03:46:27.845Z,4.70
2018-05-06T03:49:03.049Z,3.87
2018-05-06T03:51:38.283Z,4.17
2018-05-06T03:54:14.141Z,4.20
2018-05-06T03:57:08.022Z,3.40
2018-05-06T04:00:01.110Z,3.77
2018-05-06T04:02:40.221Z,4.00
2018-05-06T04:05:16.133Z,3.93
2018-05-06T04:07:51.350Z,3.87
2018-05-06T04:10:26.754Z,4.33
2018-05-06T04:13:02.131Z,3.60
2018-05-06T04:15:37.348Z,3.97
2018-05-06T04:18:12.646Z,3.80
2018-05-06T04:20:47.861Z,3.87
2018-05-06T04:23:23.142Z,3.83
2018-05-06T04:25:58.385Z,4.67
2018-05-06T04:28:33.564Z,3.43
2018-05-06T04:31:08.813Z,3.63
2018-05-06T04:33:44.027Z,3.47
2018-05-06T04:36:19.245Z,3.37
2018-05-06T04:38:55.263Z,3.40
2018-05-06T04:41:30.377Z,3.40
2018-05-06T04:44:05.573Z,4.00
2018-05-06T04:46:40.845Z,3.20
2018-05-06T04:49:16.743Z,3.63
2018-05-06T04:51:51.864Z,3.90
2018-05-06T04:54:27.743Z,3.60
2018-05-06T04:57:03.008Z,3.57
2018-05-06T04:59:38.231Z,3.80
2018-05-06T05:02:13.521Z,4.80
2018-05-06T05:04:48.756Z,3.83
2018-05-06T05:07:23.982Z,3.97
2018-05-06T05:09:59.174Z,3.50
2018-05-06T05:12:34.484Z,3.00
2018-05-06T05:15:09.623Z,3.17
2018-05-06T05:17:44.982Z,3.20
2018-05-06T05:20:20.955Z,3.43
2018-05-06T05:22:56.349Z,3.83
2018-05-06T05:25:31.492Z,2.93
2018-05-06T05:28:06.781Z,2.90
2018-05-06T05:30:42.056Z,2.80
2018-05-06T05:33:17.320Z,3.10
2018-05-06T05:35:52.560Z,2.97
2018-05-06T05:38:27.845Z,3.00
2018-05-06T05:41:03.153Z,3.10
2018-05-06T05:43:38.424Z,2.70
2018-05-06T05:46:14.381Z,3.13
2018-05-06T05:48:49.519Z,2.97
2018-05-06T05:51:25.541Z,2.40
2018-05-06T05:54:01.510Z,2.80
2018-05-06T05:56:36.702Z,2.57
2018-05-06T05:59:12.015Z,2.77
2018-05-06T06:01:47.130Z,2.53
2018-05-06T06:04:22.367Z,3.40
2018-05-06T06:06:57.660Z,3.50
2018-05-06T06:09:33.700Z,2.67
2018-05-06T06:12:09.035Z,3.17
2018-05-06T06:14:44.375Z,2.43
2018-05-06T06:17:19.562Z,2.27
2018-05-06T06:19:54.872Z,2.43
2018-05-06T06:22:30.077Z,2.23
2018-05-06T06:25:05.393Z,3.00
2018-05-06T06:27:40.516Z,2.10
2018-05-06T06:30:15.792Z,1.87
2018-05-06T06:32:51.140Z,2.20
2018-05-06T06:35:27.082Z,2.03
2018-05-06T06:38:02.246Z,2.00
2018-05-06T06:40:37.490Z,1.90
2018-05-06T06:43:12.760Z,1.77
2018-05-06T06:45:48.659Z,1.70
2018-05-06T06:48:23.926Z,2.00
2018-05-06T06:50:59.065Z,2.07
2018-05-06T06:53:34.341Z,1.70
2018-05-06T06:56:10.249Z,1.50
2018-05-06T06:58:45.398Z,1.83
2018-05-06T07:01:20.689Z,1.47
2018-05-06T07:03:55.900Z,1.70
2018-05-06T07:06:31.159Z,1.30
2018-05-06T07:09:06.555Z,1.57
2018-05-06T07:11:41.764Z,1.40
2018-05-06T07:14:17.693Z,1.70
2018-05-06T07:16:52.840Z,1.33
2018-05-06T07:19:28.196Z,1.47
2018-05-06T07:22:03.439Z,1.87
2018-05-06T07:24:38.624Z,1.23
2018-05-06T07:27:13.920Z,1.70
2018-05-06T07:29:49.194Z,1.50
2018-05-06T07:32:24.380Z,1.70
2018-05-06T07:35:00.361Z,1.50
2018-05-06T07:37:35.700Z,1.70
2018-05-06T07:40:10.839Z,1.57
2018-05-06T07:42:46.097Z,1.43
2018-05-06T07:45:21.336Z,1.60
2018-05-06T07:47:57.383Z,1.40
2018-05-06T07:50:32.636Z,1.50
2018-05-06T07:53:07.824Z,1.80
2018-05-06T07:55:43.237Z,1.30
2018-05-06T07:58:18.331Z,1.47
2018-05-06T08:00:53.541Z,1.40
2018-05-06T08:03:28.835Z,1.57
2018-05-06T08:06:04.111Z,1.50
2018-05-06T08:08:40.049Z,1.80
2018-05-06T08:11:15.188Z,1.50
2018-05-06T08:13:50.546Z,1.40
2018-05-06T08:16:26.496Z,1.50
2018-05-06T08:19:01.726Z,1.60
2018-05-06T08:21:37.016Z,1.43
2018-05-06T08:24:12.293Z,1.33
2018-05-06T08:26:47.426Z,1.80
2018-05-06T08:29:22.625Z,1.60
2018-05-06T08:31:57.866Z,1.60
2018-05-06T08:34:33.124Z,1.07
2018-05-06T08:37:09.083Z,1.90
2018-05-06T08:39:44.406Z,1.50
2018-05-06T08:42:19.759Z,1.37
2018-05-06T08:44:54.939Z,1.70
2018-05-06T08:47:30.189Z,1.80
2018-05-06T08:50:06.140Z,1.60
2018-05-06T08:52:41.496Z,1.70
2018-05-06T08:55:17.415Z,1.67
2018-05-06T08:57:52.522Z,1.70
2018-05-06T09:00:27.837Z,1.60
2018-05-06T09:03:03.096Z,1.40
2018-05-06T09:05:39.139Z,1.50
2018-05-06T09:08:16.302Z,1.50
2018-05-06T09:10:52.649Z,1.30
2018-05-06T09:13:27.985Z,1.63
2018-05-06T09:16:03.345Z,1.80
2018-05-06T09:18:38.571Z,1.77
2018-05-06T09:21:13.835Z,1.50
2018-05-06T09:23:49.170Z,1.70
2018-05-06T09:26:25.135Z,1.40
2018-05-06T09:29:00.316Z,1.10
2018-05-06T09:31:36.199Z,1.47
2018-05-06T09:34:11.504Z,1.60
2018-05-06T09:36:46.669Z,1.70
2018-05-06T09:39:22.386Z,1.33
2018-05-06T09:41:57.643Z,1.80
2018-05-06T09:44:33.589Z,1.70
2018-05-06T09:47:08.867Z,1.53
2018-05-06T09:49:44.867Z,1.50
2018-05-06T09:52:20.126Z,2.70
2018-05-06T09:54:55.256Z,1.20
2018-05-06T09:57:30.373Z,1.53
2018-05-06T10:00:05.627Z,1.20
2018-05-06T10:02:41.658Z,1.30
2018-05-06T10:05:16.833Z,1.90
2018-05-06T10:07:52.688Z,1.40
2018-05-06T10:10:27.844Z,1.20
2018-05-06T10:13:03.037Z,1.00
2018-05-06T10:15:38.907Z,1.60
2018-05-06T10:18:15.964Z,1.53
2018-05-06T10:20:51.265Z,1.27
2018-05-06T10:23:26.432Z,1.50
2018-05-06T10:26:02.920Z,1.37
2018-05-06T10:28:38.092Z,1.20
2018-05-06T10:31:13.431Z,1.50
2018-05-06T10:33:49.833Z,1.50
2018-05-06T10:36:25.046Z,1.23
2018-05-06T10:39:00.423Z,1.50
2018-05-06T10:41:36.362Z,1.10
2018-05-06T10:44:11.685Z,1.30
2018-05-06T10:46:46.661Z,1.10
2018-05-06T10:49:21.990Z,1.10
2018-05-06T10:51:57.020Z,2.00
2018-05-06T10:54:32.209Z,1.20
2018-05-06T10:57:07.389Z,1.70
2018-05-06T10:59:42.469Z,1.33
2018-05-06T11:02:17.752Z,1.77
2018-05-06T11:04:53.957Z,1.60
2018-05-06T11:07:29.240Z,1.30
2018-05-06T11:10:04.422Z,1.17
2018-05-06T11:12:39.676Z,1.07
2018-05-06T11:15:15.769Z,1.00
2018-05-06T11:17:51.857Z,0.87
2018-05-06T11:20:26.862Z,1.00
2018-05-06T11:23:02.841Z,0.80
2018-05-06T11:25:38.737Z,0.87
2018-05-06T11:28:16.257Z,1.13
2018-05-06T11:30:52.663Z,0.90
2018-05-06T11:33:29.345Z,0.90
2018-05-06T11:36:04.551Z,0.80
2018-05-06T11:38:40.450Z,1.20
2018-05-06T11:41:16.613Z,1.00
2018-05-06T11:43:52.669Z,0.67
2018-05-06T11:46:28.675Z,0.70
2018-05-06T11:49:04.779Z,0.90
2018-05-06T11:51:40.139Z,1.00
2018-05-06T11:54:16.156Z,1.13
2018-05-06T11:56:53.344Z,0.87
2018-05-06T11:59:28.670Z,1.00
2018-05-06T12:02:04.021Z,0.80
2018-05-06T12:04:39.353Z,1.17
2018-05-06T12:07:14.680Z,0.83
2018-05-06T12:09:49.985Z,0.83
2018-05-06T12:12:25.326Z,0.70
2018-05-06T12:15:00.425Z,0.87
2018-05-06T12:17:35.770Z,0.70
2018-05-06T12:20:11.157Z,0.90
2018-05-06T12:22:47.291Z,1.17
2018-05-06T12:25:22.467Z,0.90
2018-05-06T12:27:58.494Z,0.83
2018-05-06T12:30:33.727Z,0.70
2018-05-06T12:33:08.965Z,1.20
2018-05-06T12:35:44.267Z,0.87
2018-05-06T12:38:19.776Z,0.70
2018-05-06T12:40:55.051Z,0.77
2018-05-06T12:43:30.358Z,0.87
2018-05-06T12:46:05.527Z,0.90
2018-05-06T12:48:41.627Z,1.20
2018-05-06T12:51:16.786Z,0.97
2018-05-06T12:53:52.821Z,1.20
2018-05-06T12:56:28.672Z,0.90
2018-05-06T12:59:04.014Z,0.83
2018-05-06T13:01:40.597Z,1.20
2018-05-06T13:04:15.814Z,0.83
2018-05-06T13:06:51.138Z,1.00
2018-05-06T13:09:26.427Z,0.70
2018-05-06T13:12:01.714Z,0.80
2018-05-06T13:14:37.421Z,0.90
2018-05-06T13:17:12.623Z,0.67
2018-05-06T13:19:47.807Z,1.30
2018-05-06T13:22:23.028Z,1.23
2018-05-06T13:24:58.954Z,1.20
2018-05-06T13:27:34.037Z,1.20
2018-05-06T13:30:09.311Z,0.67
2018-05-06T13:32:45.339Z,0.77
2018-05-06T13:35:20.612Z,0.80
2018-05-06T13:37:56.578Z,1.17
2018-05-06T13:40:31.738Z,0.80
2018-05-06T13:43:07.036Z,0.93
2018-05-06T13:45:42.359Z,1.00
2018-05-06T13:48:18.377Z,0.67
2018-05-06T13:50:53.672Z,0.97
2018-05-06T13:53:28.913Z,0.73
2018-05-06T13:56:04.056Z,0.90
2018-05-06T13:58:39.349Z,1.27
2018-05-06T14:01:14.515Z,0.90
2018-05-06T14:03:50.435Z,0.77
2018-05-06T14:06:25.512Z,0.63
2018-05-06T14:09:00.888Z,1.23
2018-05-06T14:11:36.021Z,1.20
2018-05-06T14:14:11.257Z,0.87
2018-05-06T14:16:47.301Z,0.87
2018-05-06T14:19:22.595Z,1.40
2018-05-06T14:21:57.806Z,5.40
2018-05-06T14:24:33.704Z,1.00
2018-05-06T14:27:09.638Z,0.93
2018-05-06T14:29:44.776Z,0.70
2018-05-06T14:32:20.038Z,0.73
2018-05-06T14:34:55.276Z,0.73
2018-05-06T14:37:30.640Z,0.63
2018-05-06T14:40:05.887Z,0.97
2018-05-06T14:42:41.107Z,1.20
2018-05-06T14:45:16.504Z,0.87
2018-05-06T14:48:10.524Z,0.70
2018-05-06T14:50:45.822Z,0.90
2018-05-06T14:53:21.111Z,1.00
2018-05-06T14:55:57.040Z,0.70
2018-05-06T14:58:32.972Z,0.70
2018-05-06T15:01:08.123Z,0.80
2018-05-06T15:03:44.440Z,0.80
2018-05-06T15:06:19.672Z,0.80
2018-05-06T15:08:54.901Z,0.60
2018-05-06T15:11:30.214Z,0.80
2018-05-06T15:14:05.352Z,0.63
2018-05-06T15:16:40.644Z,0.60
2018-05-06T15:19:15.967Z,0.80
2018-05-06T15:21:51.284Z,0.50
2018-05-06T15:24:27.364Z,0.60
2018-05-06T15:27:02.580Z,0.60
2018-05-06T15:29:38.568Z,0.70
2018-05-06T15:32:13.731Z,0.50
2018-05-06T15:34:48.819Z,0.83
2018-05-06T15:37:24.028Z,3.57
2018-05-06T15:39:59.956Z,0.60
2018-05-06T15:42:35.384Z,1.00
2018-05-06T15:45:11.365Z,0.83
2018-05-06T15:47:46.469Z,0.73
2018-05-06T15:50:22.530Z,1.27
2018-05-06T15:52:57.755Z,0.80
2018-05-06T15:55:33.822Z,1.00
2018-05-06T15:58:09.198Z,1.20
2018-05-06T16:00:44.400Z,0.93
2018-05-06T16:03:37.636Z,1.07
2018-05-06T16:06:12.946Z,1.30
2018-05-06T16:08:48.176Z,1.27
2018-05-06T16:11:23.406Z,1.13
2018-05-06T16:13:58.418Z,1.57
2018-05-06T16:16:33.798Z,1.13
2018-05-06T16:19:09.750Z,1.50
2018-05-06T16:21:45.046Z,1.40
2018-05-06T16:24:20.324Z,1.00
2018-05-06T16:26:56.364Z,1.47
2018-05-06T16:29:31.608Z,0.90
2018-05-06T16:32:06.833Z,1.30
2018-05-06T16:34:42.132Z,3.83
2018-05-06T16:37:17.250Z,4.73
2018-05-06T16:39:52.532Z,2.07
2018-05-06T16:42:27.827Z,1.20
2018-05-06T16:45:03.175Z,1.17
2018-05-06T16:47:39.193Z,2.23
2018-05-06T16:50:14.313Z,1.17
2018-05-06T16:52:49.582Z,1.20
2018-05-06T16:55:24.677Z,0.97
2018-05-06T16:58:00.583Z,1.70
2018-05-06T17:00:35.772Z,1.53
2018-05-06T17:03:11.026Z,1.33
2018-05-06T17:05:46.419Z,3.10
2018-05-06T17:08:21.650Z,2.53
2018-05-06T17:10:57.004Z,3.23
2018-05-06T17:13:32.264Z,2.33
2018-05-06T17:16:08.259Z,1.90
2018-05-06T17:18:44.147Z,2.20
2018-05-06T17:21:19.265Z,2.10
2018-05-06T17:23:54.504Z,2.00
2018-05-06T17:26:29.789Z,1.70
2018-05-06T17:29:05.084Z,1.50
2018-05-06T17:31:40.296Z,1.80
2018-05-06T17:34:15.579Z,1.37
2018-05-06T17:36:50.815Z,1.30
2018-05-06T17:39:26.083Z,1.10
2018-05-06T17:42:01.380Z,1.60
2018-05-06T17:44:36.708Z,1.13
2018-05-06T17:47:11.914Z,1.20
2018-05-06T17:49:47.141Z,1.10
2018-05-06T17:52:22.338Z,1.53
2018-05-06T17:54:57.538Z,1.43
2018-05-06T17:57:32.777Z,1.10
2018-05-06T18:00:08.048Z,1.10
2018-05-06T18:02:43.939Z,1.20
2018-05-06T18:05:19.179Z,1.40
2018-05-06T18:07:54.425Z,0.97
2018-05-06T18:10:29.790Z,1.47
2018-05-06T18:13:05.019Z,1.27
2018-05-06T18:15:40.314Z,1.50
2018-05-06T18:18:15.522Z,1.03
2018-05-06T18:20:50.709Z,1.63
2018-05-06T18:23:25.968Z,0.97
2018-05-06T18:26:01.149Z,1.00
2018-05-06T18:28:36.343Z,1.43
2018-05-06T18:31:11.680Z,1.27
2018-05-06T18:33:47.004Z,1.50
2018-05-06T18:36:22.225Z,1.60
2018-05-06T18:38:57.549Z,4.00
2018-05-06T18:41:32.773Z,5.97
2018-05-06T18:44:08.775Z,1.47
2018-05-06T18:46:43.908Z,1.00
2018-05-06T18:49:19.123Z,1.23
2018-05-06T18:51:54.990Z,1.43
2018-05-06T18:54:30.263Z,1.20
2018-05-06T18:57:05.576Z,1.00
2018-05-06T18:59:40.924Z,1.60
2018-05-06T19:02:17.240Z,0.83
2018-05-06T19:04:53.157Z,1.37
2018-05-06T19:07:28.300Z,1.10
2018-05-06T19:10:03.691Z,1.27
2018-05-06T19:12:39.616Z,1.10
2018-05-06T19:15:14.856Z,1.30
2018-05-06T19:17:50.771Z,0.97
2018-05-06T19:20:25.933Z,1.10
2018-05-06T19:23:01.312Z,1.20
2018-05-06T19:25:36.473Z,1.80
2018-05-06T19:28:11.685Z,1.37
2018-05-06T19:30:46.854Z,1.90
2018-05-06T19:33:22.214Z,1.30
2018-05-06T19:35:58.342Z,1.27
2018-05-06T19:38:33.469Z,4.97
2018-05-06T19:41:08.649Z,1.30
2018-05-06T19:43:44.493Z,1.70
2018-05-06T19:46:20.374Z,1.20
2018-05-06T19:48:55.496Z,1.50
2018-05-06T19:51:31.409Z,1.50
2018-05-06T19:54:06.472Z,1.40
2018-05-06T19:56:42.546Z,1.33
2018-05-06T19:59:18.476Z,1.10
2018-05-06T20:01:53.838Z,1.00
2018-05-06T20:04:29.097Z,1.10
2018-05-06T20:07:04.441Z,1.10
2018-05-06T20:09:39.705Z,1.27
2018-05-06T20:12:14.988Z,1.10
2018-05-06T20:14:50.268Z,0.87
2018-05-06T20:17:25.590Z,1.30
2018-05-06T20:20:00.843Z,1.23
2018-05-06T20:22:36.081Z,1.30
2018-05-06T20:25:11.371Z,1.40
2018-05-06T20:27:46.671Z,1.63
2018-05-06T20:30:22.614Z,1.30
2018-05-06T20:32:57.769Z,1.20
2018-05-06T20:35:32.980Z,1.40
2018-05-06T20:38:08.271Z,1.10
2018-05-06T20:40:43.563Z,1.40
2018-05-06T20:43:19.397Z,1.40
2018-05-06T20:45:54.559Z,1.20
2018-05-06T20:48:29.810Z,1.63
2018-05-06T20:51:05.153Z,1.27
2018-05-06T20:53:40.291Z,1.43
2018-05-06T20:56:16.232Z,1.60
2018-05-06T20:58:51.544Z,1.70
2018-05-06T21:01:26.776Z,1.40
2018-05-06T21:04:02.025Z,1.07
2018-05-06T21:06:37.198Z,1.30
2018-05-06T21:09:12.481Z,1.10
2018-05-06T21:11:48.499Z,1.50
2018-05-06T21:14:23.609Z,1.60
2018-05-06T21:16:58.820Z,1.57
2018-05-06T21:19:34.057Z,1.57
2018-05-06T21:22:09.375Z,2.17
2018-05-06T21:24:44.637Z,1.30
2018-05-06T21:27:19.719Z,1.13
2018-05-06T21:29:54.909Z,1.80
2018-05-06T21:32:30.035Z,1.53
2018-05-06T21:35:05.166Z,1.53
2018-05-06T21:37:40.421Z,1.50
2018-05-06T21:40:15.585Z,1.30
2018-05-06T21:42:50.839Z,1.47
2018-05-06T21:45:26.194Z,1.47
2018-05-06T21:48:01.397Z,1.47
2018-05-06T21:50:36.653Z,1.60
2018-05-06T21:53:11.874Z,1.50
2018-05-06T21:55:47.164Z,1.70
2018-05-06T21:58:22.412Z,1.27
2018-05-06T22:00:57.695Z,1.27
2018-05-06T22:03:33.064Z,1.40
2018-05-06T22:06:08.312Z,1.47
2018-05-06T22:08:49.428Z,1.67
2018-05-06T22:11:24.709Z,2.00
2018-05-06T22:14:00.848Z,1.60
2018-05-06T22:16:36.942Z,1.30
2018-05-06T22:19:12.103Z,1.30
2018-05-06T22:21:48.063Z,1.40
2018-05-06T22:24:23.209Z,1.60
2018-05-06T22:26:58.465Z,1.40
2018-05-06T22:29:33.677Z,1.47
2018-05-06T22:32:08.914Z,1.50
2018-05-06T22:34:44.039Z,1.40
2018-05-06T22:37:19.300Z,1.83
2018-05-06T22:39:54.473Z,1.70
2018-05-06T22:42:29.843Z,1.17
2018-05-06T22:45:06.136Z,1.73
2018-05-06T22:47:41.239Z,2.07
2018-05-06T22:50:16.424Z,1.43
2018-05-06T22:52:51.732Z,1.50
2018-05-06T22:55:26.896Z,1.10
2018-05-06T22:58:02.118Z,1.53
2018-05-06T23:00:37.305Z,1.40
2018-05-06T23:03:12.542Z,1.57
2018-05-06T23:05:47.654Z,1.80
2018-05-06T23:08:22.855Z,1.60
2018-05-06T23:10:58.868Z,1.47
2018-05-06T23:13:34.075Z,1.40
2018-05-06T23:16:09.359Z,1.50
2018-05-06T23:18:45.542Z,1.50
2018-05-06T23:21:20.732Z,1.50
2018-05-06T23:23:56.019Z,1.63
2018-05-06T23:26:31.245Z,1.37
2018-05-06T23:29:06.493Z,1.53
2018-05-06T23:31:41.833Z,1.57
2018-05-06T23:34:17.002Z,2.00
2018-05-06T23:36:52.222Z,1.50
2018-05-06T23:39:27.565Z,1.70
2018-05-06T23:42:02.872Z,1.60
2018-05-06T23:44:38.164Z,1.73
2018-05-06T23:47:13.333Z,1.20
2018-05-06T23:49:48.536Z,1.63
2018-05-06T23:52:23.607Z,1.63
2018-05-06T23:54:58.748Z,1.80
2018-05-06T23:57:34.675Z,1.87
